Time;durP1;ratioP1;P1;durP2;ratioP2;P2;SDS_P1;SDS_P2;PMS_P1;PMS_P2;Temp;Humidity;BMP_temperature;BMP_pressure;BME280_temperature;BME280_humidity;BME280_pressure;Samples;Min_cycle;Max_cycle;Signal;HPM_P1;HPM_P2
2023/10/13 00:01:13;;;;;;;10.35;9.27;;;;;;;;;;5082480;28;41450;-72
2023/10/13 00:03:42;;;;;;;10.30;8.32;;;;;;;;;;5076077;28;41018;-72
2023/10/13 00:06:10;;;;;;;8.35;7.55;;;;;;;;;;5081772;28;41661;-74
2023/10/13 00:08:40;;;;;;;8.70;6.82;;;;;;;;;;5083838;28;41975;-72
2023/10/13 00:11:12;;;;;;;7.10;6.30;;;;;;;;;;5081320;28;40121;-72
2023/10/13 00:13:49;;;;;;;8.13;7.30;;;;;;;;;;5078832;28;43135;-72
2023/10/13 00:16:21;;;;;;;5.60;4.88;;;;;;;;;;5084927;28;42213;-72
2023/10/13 00:18:50;;;;;;;17.20;12.98;;;;;;;;;;5083116;28;39673;-72
2023/10/13 00:21:31;;;;;;;9.93;8.93;;;;;;;;;;5084637;28;41755;-72
2023/10/13 00:24:01;;;;;;;7.05;6.22;;;;;;;;;;5083150;28;41660;-72
2023/10/13 00:26:30;;;;;;;5.63;5.10;;;;;;;;;;5084950;28;40943;-72
2023/10/13 00:29:08;;;;;;;6.00;5.40;;;;;;;;;;5081533;28;42225;-72
2023/10/13 00:31:38;;;;;;;11.20;10.05;;;;;;;;;;5084663;28;40435;-72
2023/10/13 00:34:18;;;;;;;6.28;5.45;;;;;;;;;;5082170;28;41737;-72
2023/10/13 00:36:48;;;;;;;13.18;11.13;;;;;;;;;;5074210;28;43103;-72
2023/10/13 00:39:18;;;;;;;8.55;7.65;;;;;;;;;;5083555;28;41436;-72
2023/10/13 00:41:58;;;;;;;6.70;5.18;;;;;;;;;;5081271;28;41688;-72
2023/10/13 00:44:35;;;;;;;8.65;7.75;;;;;;;;;;5069216;28;42536;-72
2023/10/13 00:47:07;;;;;;;8.43;7.63;;;;;;;;;;5082290;28;41371;-72
2023/10/13 00:49:39;;;;;;;12.13;9.70;;;;;;;;;;5074752;28;42682;-72
2023/10/13 00:52:09;;;;;;;8.68;7.78;;;;;;;;;;5083062;28;41523;-72
2023/10/13 00:54:38;;;;;;;8.75;6.95;;;;;;;;;;5084426;28;41787;-72
2023/10/13 00:57:11;;;;;;;6.18;5.20;;;;;;;;;;5083797;28;42013;-72
2023/10/13 00:59:41;;;;;;;6.95;6.35;;;;;;;;;;5082078;28;39731;-73
2023/10/13 01:04:54;;;;;;;8.60;7.80;;;;;;;;;;5085486;28;41063;-72
2023/10/13 01:07:22;;;;;;;8.55;7.65;;;;;;;;;;5077723;28;38816;-72
2023/10/13 01:09:53;;;;;;;7.00;6.30;;;;;;;;;;5084330;28;40386;-72
2023/10/13 01:12:23;;;;;;;7.53;6.55;;;;;;;;;;5078935;28;38862;-72
2023/10/13 01:14:51;;;;;;;10.70;8.48;;;;;;;;;;5082277;28;40451;-72
2023/10/13 01:17:18;;;;;;;5.80;5.20;;;;;;;;;;5085908;28;40761;-72
2023/10/13 01:19:49;;;;;;;5.28;4.78;;;;;;;;;;5077764;28;39818;-72
2023/10/13 01:22:16;;;;;;;6.00;5.50;;;;;;;;;;5087585;28;41461;-72
2023/10/13 01:24:45;;;;;;;6.97;6.38;;;;;;;;;;5083286;28;42443;-72
2023/10/13 01:27:17;;;;;;;7.68;6.88;;;;;;;;;;5081809;28;38880;-72
2023/10/13 01:29:48;;;;;;;7.97;5.68;;;;;;;;;;5080571;28;42375;-72
2023/10/13 01:32:15;;;;;;;6.35;4.93;;;;;;;;;;5084883;28;39895;-72
2023/10/13 01:34:46;;;;;;;8.95;7.15;;;;;;;;;;5086363;28;42129;-72
2023/10/13 01:37:13;;;;;;;6.00;5.40;;;;;;;;;;5114107;27;41184;-72
2023/10/13 01:39:41;;;;;;;5.43;4.93;;;;;;;;;;5086175;28;40159;-72
2023/10/13 01:42:14;;;;;;;9.15;7.28;;;;;;;;;;5084922;28;42645;-72
2023/10/13 01:44:42;;;;;;;6.55;5.55;;;;;;;;;;5085551;28;42725;-73
2023/10/13 01:47:09;;;;;;;5.47;4.85;;;;;;;;;;5084980;28;39699;-72
2023/10/13 01:49:41;;;;;;;5.47;4.97;;;;;;;;;;5076714;28;40283;-72
2023/10/13 01:52:11;;;;;;;5.90;4.50;;;;;;;;;;5083888;28;42650;-72
2023/10/13 01:54:40;;;;;;;8.55;7.75;;;;;;;;;;5080341;28;42560;-72
2023/10/13 01:57:07;;;;;;;6.95;6.18;;;;;;;;;;5085495;28;41567;-72
2023/10/13 01:59:43;;;;;;;6.55;5.43;;;;;;;;;;5082580;28;40251;-72
2023/10/13 02:02:12;;;;;;;6.03;4.93;;;;;;;;;;5086774;28;41341;-72
2023/10/13 02:04:42;;;;;;;5.60;5.07;;;;;;;;;;5082362;28;40555;-71
2023/10/13 02:07:14;;;;;;;5.93;4.88;;;;;;;;;;5079808;28;41067;-72
2023/10/13 02:09:43;;;;;;;6.20;5.30;;;;;;;;;;5079760;28;41069;-72
2023/10/13 02:12:10;;;;;;;9.95;8.75;;;;;;;;;;5083477;28;41690;-72
2023/10/13 02:14:42;;;;;;;6.28;5.40;;;;;;;;;;5084868;28;40299;-72
2023/10/13 02:17:12;;;;;;;11.30;7.90;;;;;;;;;;5084202;28;42759;-72
2023/10/13 02:19:44;;;;;;;7.80;6.50;;;;;;;;;;5081963;28;40197;-72
2023/10/13 02:22:12;;;;;;;6.97;6.28;;;;;;;;;;5084733;28;41857;-72
2023/10/13 02:24:40;;;;;;;6.80;6.05;;;;;;;;;;5083603;28;41888;-72
2023/10/13 02:27:13;;;;;;;5.13;4.63;;;;;;;;;;5081589;28;38836;-72
2023/10/13 02:29:45;;;;;;;5.40;4.90;;;;;;;;;;5081550;28;40496;-72
2023/10/13 02:32:18;;;;;;;4.97;4.22;;;;;;;;;;5078161;28;42177;-72
2023/10/13 02:34:46;;;;;;;8.60;7.60;;;;;;;;;;5075563;28;40985;-72
2023/10/13 02:37:13;;;;;;;6.55;5.85;;;;;;;;;;5085255;28;40898;-72
2023/10/13 02:39:42;;;;;;;6.53;5.78;;;;;;;;;;5085039;28;40361;-72
2023/10/13 02:42:16;;;;;;;5.10;4.47;;;;;;;;;;5083974;28;41743;-72
2023/10/13 02:44:48;;;;;;;4.85;4.35;;;;;;;;;;5082344;28;42188;-72
2023/10/13 02:47:15;;;;;;;5.00;4.22;;;;;;;;;;5085804;28;40311;-72
2023/10/13 02:49:45;;;;;;;6.57;5.88;;;;;;;;;;5083460;28;41537;-72
2023/10/13 02:52:12;;;;;;;5.53;4.30;;;;;;;;;;5085424;28;41551;-72
2023/10/13 02:54:46;;;;;;;5.63;5.00;;;;;;;;;;5079063;28;41257;-72
2023/10/13 02:57:15;;;;;;;5.68;4.82;;;;;;;;;;5084365;28;41296;-72
2023/10/13 02:59:47;;;;;;;5.32;4.82;;;;;;;;;;5084105;28;42127;-72
2023/10/13 03:02:17;;;;;;;9.95;6.40;;;;;;;;;;5083652;28;41594;-72
2023/10/13 03:04:47;;;;;;;6.20;5.60;;;;;;;;;;5083974;28;42690;-72
2023/10/13 03:07:22;;;;;;;6.53;4.15;;;;;;;;;;5083632;28;40517;-72
2023/10/13 03:09:52;;;;;;;5.88;5.28;;;;;;;;;;5079124;28;42233;-72
2023/10/13 03:12:19;;;;;;;4.70;3.40;;;;;;;;;;5083324;28;40906;-72
2023/10/13 03:14:48;;;;;;;5.35;4.85;;;;;;;;;;5083786;28;40235;-72
2023/10/13 03:17:19;;;;;;;8.00;6.60;;;;;;;;;;5082345;28;41284;-72
2023/10/13 03:19:49;;;;;;;5.45;4.95;;;;;;;;;;5083276;28;40646;-72
2023/10/13 03:22:30;;;;;;;4.25;3.85;;;;;;;;;;5082334;28;41932;-72
2023/10/13 03:24:59;;;;;;;4.50;4.10;;;;;;;;;;5074535;28;41684;-72
2023/10/13 03:27:40;;;;;;;4.78;3.80;;;;;;;;;;5085260;28;41593;-72
2023/10/13 03:30:14;;;;;;;4.30;3.90;;;;;;;;;;5083995;28;42604;-72
2023/10/13 03:32:46;;;;;;;5.07;4.57;;;;;;;;;;5084029;28;41620;-72
2023/10/13 03:35:23;;;;;;;3.78;3.40;;;;;;;;;;5083077;28;39931;-72
2023/10/13 03:37:51;;;;;;;3.67;3.38;;;;;;;;;;5082427;28;41679;-72
2023/10/13 03:43:13;;;;;;;3.92;3.53;;;;;;;;;;5143533;27;21169;-72
2023/10/13 03:45:42;;;;;;;5.35;4.40;;;;;;;;;;5142294;27;41908;-72
2023/10/13 03:48:11;;;;;;;5.85;5.20;;;;;;;;;;5142610;27;40922;-72
2023/10/13 03:50:46;;;;;;;6.60;5.18;;;;;;;;;;5140000;27;40769;-72
2023/10/13 03:53:14;;;;;;;6.70;5.72;;;;;;;;;;5135146;27;41746;-72
2023/10/13 03:55:47;;;;;;;5.35;4.18;;;;;;;;;;5144023;27;40443;-72
2023/10/13 03:58:17;;;;;;;5.70;4.68;;;;;;;;;;5140006;27;41953;-72
2023/10/13 04:00:48;;;;;;;3.50;3.20;;;;;;;;;;5144273;27;43047;-71
2023/10/13 04:03:18;;;;;;;4.03;3.63;;;;;;;;;;5142641;27;39200;-71
2023/10/13 04:06:00;;;;;;;5.30;4.75;;;;;;;;;;5132339;27;43032;-72
2023/10/13 04:08:49;;;;;;;5.13;3.72;;;;;;;;;;5136316;27;41151;-72
2023/10/13 04:14:24;;;;;;;4.50;4.00;;;;;;;;;;5138224;27;41599;-72
2023/10/13 04:16:54;;;;;;;3.90;3.50;;;;;;;;;;5136912;27;40088;-72
2023/10/13 04:19:29;;;;;;;3.55;3.25;;;;;;;;;;5141763;27;42117;-72
2023/10/13 04:22:13;;;;;;;3.63;3.20;;;;;;;;;;5137135;27;41982;-72
2023/10/13 04:27:44;;;;;;;4.03;3.50;;;;;;;;;;5141761;27;39536;-72
2023/10/13 04:30:24;;;;;;;4.70;4.13;;;;;;;;;;5138831;27;40878;-71
2023/10/13 04:35:58;;;;;;;4.82;3.63;;;;;;;;;;5122210;27;20561;-72
2023/10/13 04:38:33;;;;;;;4.10;3.15;;;;;;;;;;5122717;27;42169;-72
2023/10/13 04:41:10;;;;;;;4.53;3.15;;;;;;;;;;5117337;27;41331;-72
2023/10/13 04:43:55;;;;;;;3.35;2.80;;;;;;;;;;5119439;27;41548;-72
2023/10/13 04:46:40;;;;;;;3.55;2.80;;;;;;;;;;5116615;27;41570;-72
2023/10/13 04:49:26;;;;;;;4.80;3.70;;;;;;;;;;5108624;27;40369;-72
2023/10/13 04:52:01;;;;;;;5.90;4.43;;;;;;;;;;5119673;27;41357;-72
2023/10/13 04:54:33;;;;;;;4.07;3.58;;;;;;;;;;5119603;27;41886;-71
2023/10/13 05:47:36;;;;;;;5.38;3.83;;;;;;;;;;5106523;27;42097;-72
2023/10/13 05:50:12;;;;;;;5.80;5.20;;;;;;;;;;5107371;27;41184;-72
2023/10/13 06:28:42;;;;;;;4.43;3.30;;;;;;;;;;5097189;28;41055;-72
2023/10/13 06:31:21;;;;;;;4.47;3.63;;;;;;;;;;5102604;28;42330;-72
2023/10/13 06:33:50;;;;;;;3.20;2.83;;;;;;;;;;5102801;27;38451;-72
2023/10/13 06:36:18;;;;;;;5.25;2.80;;;;;;;;;;5100944;28;42186;-72
2023/10/13 06:38:54;;;;;;;5.30;3.78;;;;;;;;;;5101734;28;39510;-72
2023/10/13 06:41:30;;;;;;;5.43;4.28;;;;;;;;;;5098194;28;39891;-72
2023/10/13 06:44:05;;;;;;;6.00;3.63;;;;;;;;;;5103800;28;41691;-72
2023/10/13 06:46:35;;;;;;;3.10;2.58;;;;;;;;;;5096303;28;40268;-72
2023/10/13 06:49:03;;;;;;;5.75;3.50;;;;;;;;;;5102521;27;41167;-72
2023/10/13 06:51:37;;;;;;;3.55;2.80;;;;;;;;;;5101110;27;41967;-72
2023/10/13 06:54:10;;;;;;;4.38;3.33;;;;;;;;;;5105140;28;41215;-72
2023/10/13 06:56:40;;;;;;;3.53;2.75;;;;;;;;;;5100157;27;41591;-72
2023/10/13 06:59:08;;;;;;;3.38;2.60;;;;;;;;;;5101383;28;33941;-72
2023/10/13 07:01:40;;;;;;;3.92;2.95;;;;;;;;;;5100146;27;42372;-72
2023/10/13 07:04:14;;;;;;;2.70;2.47;;;;;;;;;;5099725;28;42103;-72
2023/10/13 07:06:47;;;;;;;3.58;2.63;;;;;;;;;;5100451;28;39100;-72
2023/10/13 07:09:39;;;;;;;2.90;2.47;;;;;;;;;;5103191;27;41707;-72
2023/10/13 07:12:06;;;;;;;9.30;4.22;;;;;;;;;;5104872;28;43104;-72
2023/10/13 07:14:35;;;;;;;4.68;3.53;;;;;;;;;;5104325;28;41294;-72
2023/10/13 07:17:05;;;;;;;3.88;2.67;;;;;;;;;;5103139;27;41235;-72
2023/10/13 07:19:34;;;;;;;2.65;2.30;;;;;;;;;;5102276;28;42063;-72
2023/10/13 07:22:19;;;;;;;3.40;3.10;;;;;;;;;;5097810;27;41328;-72
2023/10/13 07:24:48;;;;;;;3.42;3.05;;;;;;;;;;5098392;28;42099;-72
2023/10/13 07:27:22;;;;;;;2.85;2.45;;;;;;;;;;5102872;28;39641;-72
2023/10/13 07:29:56;;;;;;;2.35;2.00;;;;;;;;;;5095881;28;42340;-72
2023/10/13 07:32:25;;;;;;;3.53;2.70;;;;;;;;;;5100942;28;40695;-71
2023/10/13 07:34:57;;;;;;;3.03;2.72;;;;;;;;;;5100231;28;40792;-72
2023/10/13 07:37:28;;;;;;;3.40;2.60;;;;;;;;;;5093105;27;41500;-72
2023/10/13 07:39:58;;;;;;;7.40;2.78;;;;;;;;;;5098034;27;42476;-72
2023/10/13 07:42:31;;;;;;;3.78;2.67;;;;;;;;;;5096915;28;40093;-72
2023/10/13 07:44:59;;;;;;;3.58;2.47;;;;;;;;;;5100712;28;41579;-72
2023/10/13 07:47:29;;;;;;;4.45;3.30;;;;;;;;;;5100416;27;39966;-72
2023/10/13 07:49:57;;;;;;;4.57;2.60;;;;;;;;;;5098718;28;41496;-72
2023/10/13 07:52:36;;;;;;;6.60;2.58;;;;;;;;;;5100375;27;42018;-73
2023/10/13 07:55:19;;;;;;;11.43;2.58;;;;;;;;;;5095676;28;41308;-72
2023/10/13 07:57:54;;;;;;;2.35;2.05;;;;;;;;;;5097895;28;41292;-73
2023/10/13 08:00:46;;;;;;;3.95;2.40;;;;;;;;;;5103146;27;42183;-74
2023/10/13 08:03:31;;;;;;;3.67;2.33;;;;;;;;;;5095322;28;40383;-75
2023/10/13 08:06:04;;;;;;;3.30;2.30;;;;;;;;;;5099509;28;41595;-73
2023/10/13 08:08:38;;;;;;;6.47;2.38;;;;;;;;;;5097420;27;40373;-74
2023/10/13 08:11:24;;;;;;;4.43;2.65;;;;;;;;;;5101680;28;41387;-73
2023/10/13 08:13:58;;;;;;;6.43;2.40;;;;;;;;;;5098820;27;42402;-74
2023/10/13 08:16:52;;;;;;;8.10;3.50;;;;;;;;;;5098796;28;41466;-74
2023/10/13 08:19:26;;;;;;;2.88;2.45;;;;;;;;;;5101021;28;41725;-75
2023/10/13 08:21:58;;;;;;;4.18;3.05;;;;;;;;;;5099760;28;43173;-74
2023/10/13 08:24:29;;;;;;;5.15;2.40;;;;;;;;;;5103962;28;40594;-74
2023/10/13 08:30:26;;;;;;;8.88;4.00;;;;;;;;;;5096560;27;41189;-72
2023/10/13 08:32:54;;;;;;;6.28;2.83;;;;;;;;;;5104131;28;42575;-73
2023/10/13 08:35:35;;;;;;;7.82;3.65;;;;;;;;;;5104681;28;41991;-70
2023/10/13 08:38:15;;;;;;;7.07;3.67;;;;;;;;;;5098112;27;38671;-75
2023/10/13 08:43:45;;;;;;;6.68;2.83;;;;;;;;;;5103623;27;40653;-71
2023/10/13 08:46:27;;;;;;;4.05;2.80;;;;;;;;;;5106230;28;41242;-74
2023/10/13 08:49:04;;;;;;;7.53;3.80;;;;;;;;;;5095370;27;40364;-74
2023/10/13 08:51:48;;;;;;;7.78;3.58;;;;;;;;;;5097836;27;42373;-73
2023/10/13 08:54:19;;;;;;;8.68;4.15;;;;;;;;;;5097499;28;40743;-74
2023/10/13 08:56:55;;;;;;;8.05;3.10;;;;;;;;;;5089390;27;42085;-74
2023/10/13 08:59:38;;;;;;;6.25;3.58;;;;;;;;;;5099188;28;40003;-75
2023/10/13 09:02:17;;;;;;;6.82;3.10;;;;;;;;;;5096360;27;41632;-75
2023/10/13 09:04:45;;;;;;;13.05;3.65;;;;;;;;;;5099364;28;41558;-74
2023/10/13 09:07:21;;;;;;;8.63;3.05;;;;;;;;;;5093969;27;40002;-73
2023/10/13 09:09:59;;;;;;;12.52;3.67;;;;;;;;;;5097085;28;42212;-74
2023/10/13 09:12:38;;;;;;;9.93;3.92;;;;;;;;;;5095986;27;41725;-71
2023/10/13 09:15:17;;;;;;;8.68;4.35;;;;;;;;;;5101114;28;40532;-69
2023/10/13 09:17:51;;;;;;;8.60;3.75;;;;;;;;;;5096113;28;42139;-74
2023/10/13 09:20:32;;;;;;;8.00;3.88;;;;;;;;;;5096383;28;40159;-74
2023/10/13 09:23:09;;;;;;;10.43;4.25;;;;;;;;;;5093864;28;42074;-70
2023/10/13 09:25:38;;;;;;;7.50;3.10;;;;;;;;;;5099940;27;41726;-70
2023/10/13 09:28:14;;;;;;;10.82;4.18;;;;;;;;;;5102180;28;41036;-69
2023/10/13 09:30:44;;;;;;;7.47;3.45;;;;;;;;;;5108506;28;43174;-70
2023/10/13 09:33:16;;;;;;;5.68;3.30;;;;;;;;;;5108598;28;42190;-71
2023/10/13 09:35:43;;;;;;;7.53;3.28;;;;;;;;;;5105818;27;40382;-71
2023/10/13 09:38:13;;;;;;;8.23;3.60;;;;;;;;;;5105080;28;43424;-70
2023/10/13 09:40:46;;;;;;;5.75;3.47;;;;;;;;;;5107643;27;39862;-69
2023/10/13 09:43:16;;;;;;;7.45;3.80;;;;;;;;;;5087189;27;42716;-70
2023/10/13 09:45:56;;;;;;;6.05;3.30;;;;;;;;;;5087793;27;44037;-71
2023/10/13 09:48:26;;;;;;;6.28;3.40;;;;;;;;;;5098479;28;38720;-70
2023/10/13 09:50:56;;;;;;;5.90;3.58;;;;;;;;;;5084830;27;41743;-71
2023/10/13 09:53:25;;;;;;;14.35;6.05;;;;;;;;;;5096052;28;41186;-72
2023/10/13 09:55:55;;;;;;;11.38;5.15;;;;;;;;;;5097347;28;39469;-72
2023/10/13 09:58:28;;;;;;;9.32;4.85;;;;;;;;;;5102559;28;41983;-71
2023/10/13 10:00:57;;;;;;;8.88;3.92;;;;;;;;;;5118897;27;41624;-71
2023/10/13 10:03:39;;;;;;;11.95;4.60;;;;;;;;;;5103139;28;42584;-74
2023/10/13 10:06:14;;;;;;;11.48;4.50;;;;;;;;;;5100339;28;42926;-73
2023/10/13 10:08:50;;;;;;;11.38;4.70;;;;;;;;;;5100638;27;40934;-78
2023/10/13 10:11:22;;;;;;;7.03;4.30;;;;;;;;;;5107902;28;41275;-74
2023/10/13 10:13:54;;;;;;;8.65;3.90;;;;;;;;;;5098908;28;41863;-74
2023/10/13 10:16:23;;;;;;;14.90;5.95;;;;;;;;;;5101445;27;40231;-71
2023/10/13 10:19:00;;;;;;;5.97;4.00;;;;;;;;;;5106465;28;41302;-73
2023/10/13 10:21:33;;;;;;;8.82;3.80;;;;;;;;;;5105498;28;42084;-74
2023/10/13 10:24:13;;;;;;;7.90;3.95;;;;;;;;;;5100715;28;41057;-73
2023/10/13 10:26:51;;;;;;;9.98;4.35;;;;;;;;;;5099727;28;42127;-73
2023/10/13 10:29:19;;;;;;;9.90;4.15;;;;;;;;;;5102991;28;40656;-73
2023/10/13 10:31:47;;;;;;;7.43;3.85;;;;;;;;;;5099490;28;42486;-73
2023/10/13 10:34:18;;;;;;;9.27;3.88;;;;;;;;;;5102509;28;42075;-72
2023/10/13 10:36:47;;;;;;;8.77;5.70;;;;;;;;;;5101121;27;40370;-71
2023/10/13 10:39:17;;;;;;;8.85;4.53;;;;;;;;;;5103530;28;42248;-72
2023/10/13 10:41:51;;;;;;;11.43;4.78;;;;;;;;;;5105833;27;41760;-74
2023/10/13 10:44:33;;;;;;;13.40;6.32;;;;;;;;;;5098504;28;40532;-74
2023/10/13 10:47:30;;;;;;;11.48;4.30;;;;;;;;;;5102409;28;42116;-75
2023/10/13 10:50:00;;;;;;;12.98;4.90;;;;;;;;;;5103998;27;40612;-74
2023/10/13 10:52:36;;;;;;;11.98;6.80;;;;;;;;;;5096999;28;40525;-72
2023/10/13 10:55:08;;;;;;;12.05;4.50;;;;;;;;;;5102037;28;41789;-73
2023/10/13 10:57:38;;;;;;;9.73;4.82;;;;;;;;;;5099248;28;40378;-72
2023/10/13 11:00:14;;;;;;;9.25;4.28;;;;;;;;;;5102188;27;41842;-73
2023/10/13 11:02:42;;;;;;;7.07;3.55;;;;;;;;;;5096652;28;41941;-73
2023/10/13 11:05:11;;;;;;;10.40;4.50;;;;;;;;;;5099227;28;39873;-72
2023/10/13 11:07:46;;;;;;;10.30;3.90;;;;;;;;;;5102773;27;41099;-73
2023/10/13 11:10:26;;;;;;;11.30;4.22;;;;;;;;;;5100408;27;41700;-71
2023/10/13 11:12:55;;;;;;;11.27;5.10;;;;;;;;;;5095637;28;42166;-74
2023/10/13 11:15:26;;;;;;;14.60;4.97;;;;;;;;;;5105115;28;41654;-74
2023/10/13 11:17:56;;;;;;;10.27;4.45;;;;;;;;;;5113337;27;39667;-73
2023/10/13 11:20:32;;;;;;;7.70;4.47;;;;;;;;;;5098452;27;41311;-73
2023/10/13 11:23:04;;;;;;;7.72;4.30;;;;;;;;;;5095387;28;41142;-74
2023/10/13 11:25:35;;;;;;;15.40;4.25;;;;;;;;;;5100515;28;40540;-71
2023/10/13 11:28:17;;;;;;;6.43;4.05;;;;;;;;;;5094642;28;41721;-71
2023/10/13 11:30:49;;;;;;;14.55;4.22;;;;;;;;;;5101396;27;42960;-71
2023/10/13 11:33:21;;;;;;;8.77;4.32;;;;;;;;;;5103219;28;42655;-71
2023/10/13 11:38:45;;;;;;;11.88;6.10;;;;;;;;;;5098650;28;40111;-71
2023/10/13 11:41:15;;;;;;;14.32;6.65;;;;;;;;;;5097442;28;41715;-71
2023/10/13 11:44:05;;;;;;;15.15;6.03;;;;;;;;;;5101648;27;42054;-71
2023/10/13 11:49:18;;;;;;;16.38;6.80;;;;;;;;;;5104385;27;42262;-70
2023/10/13 11:51:47;;;;;;;20.13;8.43;;;;;;;;;;5096073;28;41972;-70
2023/10/13 11:54:15;;;;;;;21.67;7.70;;;;;;;;;;5105385;28;40896;-74
2023/10/13 11:56:44;;;;;;;20.05;7.45;;;;;;;;;;5100450;27;42011;-70
2023/10/13 11:59:17;;;;;;;17.27;6.70;;;;;;;;;;5100341;27;39729;-71
2023/10/13 12:04:34;;;;;;;21.88;8.20;;;;;;;;;;5096353;27;41747;-70
2023/10/13 12:07:14;;;;;;;14.13;7.43;;;;;;;;;;5097134;28;39941;-70
2023/10/13 12:09:52;;;;;;;18.95;7.15;;;;;;;;;;5087953;28;41021;-70
2023/10/13 12:12:21;;;;;;;17.98;7.30;;;;;;;;;;5098191;28;42369;-70
2023/10/13 12:14:55;;;;;;;16.00;7.45;;;;;;;;;;5097248;28;40673;-70
2023/10/13 12:17:27;;;;;;;18.38;7.57;;;;;;;;;;5100496;28;42159;-70
2023/10/13 12:19:56;;;;;;;22.23;7.25;;;;;;;;;;5100167;27;39480;-71
2023/10/13 12:22:28;;;;;;;19.92;7.25;;;;;;;;;;5098581;28;41884;-70
2023/10/13 12:24:56;;;;;;;14.80;7.68;;;;;;;;;;5099449;28;42090;-71
2023/10/13 12:27:35;;;;;;;19.05;7.72;;;;;;;;;;5100273;27;39567;-70
2023/10/13 12:30:07;;;;;;;18.55;7.32;;;;;;;;;;5101360;28;41683;-71
2023/10/13 12:32:35;;;;;;;20.25;8.00;;;;;;;;;;5102896;28;41622;-71
2023/10/13 12:35:27;;;;;;;21.40;7.53;;;;;;;;;;5099870;27;40154;-71
2023/10/13 12:38:04;;;;;;;16.50;7.85;;;;;;;;;;5085790;27;41799;-70
2023/10/13 12:49:03;;;;;;;16.55;7.97;;;;;;;;;;5099268;27;40785;-70
2023/10/13 12:54:26;;;;;;;15.77;7.40;;;;;;;;;;5089391;27;43556;-70
2023/10/13 12:56:56;;;;;;;16.73;6.85;;;;;;;;;;5107482;27;39259;-70
2023/10/13 12:59:27;;;;;;;17.05;7.93;;;;;;;;;;5107413;28;40878;-70
2023/10/13 13:01:55;;;;;;;14.95;7.20;;;;;;;;;;5107017;27;41699;-69
2023/10/13 13:04:25;;;;;;;18.35;8.02;;;;;;;;;;5109258;28;39990;-69
2023/10/13 13:06:54;;;;;;;15.82;7.07;;;;;;;;;;5104719;28;41685;-70
2023/10/13 13:09:26;;;;;;;13.52;6.65;;;;;;;;;;5105055;28;39808;-70
2023/10/13 13:11:57;;;;;;;14.15;6.82;;;;;;;;;;5103615;28;41180;-69
2023/10/13 13:14:28;;;;;;;11.43;6.90;;;;;;;;;;5104758;28;41862;-71
2023/10/13 13:17:04;;;;;;;19.67;6.93;;;;;;;;;;5099032;28;40265;-70
2023/10/13 13:19:35;;;;;;;20.60;6.85;;;;;;;;;;5102334;28;42045;-70
2023/10/13 13:22:04;;;;;;;14.43;7.50;;;;;;;;;;5096927;28;42156;-75
2023/10/13 13:24:32;;;;;;;12.38;6.90;;;;;;;;;;5103703;27;40666;-70
2023/10/13 13:27:02;;;;;;;10.90;6.57;;;;;;;;;;5105368;28;41581;-70
2023/10/13 13:29:32;;;;;;;12.50;6.55;;;;;;;;;;5104810;28;40933;-70
2023/10/13 13:32:01;;;;;;;13.25;6.50;;;;;;;;;;5106803;27;41380;-71
2023/10/13 13:34:29;;;;;;;15.20;6.68;;;;;;;;;;5108852;27;42382;-71
2023/10/13 13:37:00;;;;;;;17.92;7.00;;;;;;;;;;5107121;28;40276;-71
2023/10/13 13:39:30;;;;;;;11.45;6.78;;;;;;;;;;5101122;28;41261;-70
2023/10/13 13:41:58;;;;;;;16.65;6.88;;;;;;;;;;5104822;27;41865;-70
2023/10/13 13:44:31;;;;;;;22.30;6.93;;;;;;;;;;5100620;27;41534;-71
2023/10/13 13:47:00;;;;;;;21.10;7.15;;;;;;;;;;5102478;28;41329;-70
2023/10/13 13:49:39;;;;;;;20.55;7.57;;;;;;;;;;5107117;27;40182;-71
2023/10/13 13:52:08;;;;;;;14.38;6.75;;;;;;;;;;5105446;28;41608;-70
2023/10/13 13:54:36;;;;;;;21.48;7.30;;;;;;;;;;5107153;27;42012;-70
2023/10/13 13:57:04;;;;;;;25.33;7.45;;;;;;;;;;5107658;28;40129;-71
2023/10/13 13:59:33;;;;;;;30.50;8.60;;;;;;;;;;5106975;27;41193;-71
2023/10/13 14:02:19;;;;;;;25.40;7.50;;;;;;;;;;5103654;27;42265;-72
2023/10/13 14:04:50;;;;;;;22.13;7.72;;;;;;;;;;5102195;27;40598;-72
2023/10/13 14:07:19;;;;;;;25.40;7.72;;;;;;;;;;5103915;28;41582;-74
2023/10/13 14:09:51;;;;;;;21.00;7.53;;;;;;;;;;5097076;28;43206;-71
2023/10/13 14:12:36;;;;;;;18.83;7.55;;;;;;;;;;5101825;28;42049;-72
2023/10/13 14:15:04;;;;;;;16.67;6.78;;;;;;;;;;5097967;27;40927;-72
2023/10/13 14:17:35;;;;;;;19.95;6.70;;;;;;;;;;5101039;27;41381;-72
2023/10/13 14:20:09;;;;;;;21.35;7.55;;;;;;;;;;5097822;27;41228;-72
2023/10/13 14:22:37;;;;;;;18.95;7.20;;;;;;;;;;5103190;28;42619;-71
2023/10/13 14:25:08;;;;;;;13.75;6.88;;;;;;;;;;5096073;28;40413;-71
2023/10/13 14:27:36;;;;;;;14.88;6.28;;;;;;;;;;5094884;28;42552;-70
2023/10/13 14:30:05;;;;;;;14.98;6.72;;;;;;;;;;5098028;28;43022;-77
2023/10/13 14:32:40;;;;;;;18.88;7.18;;;;;;;;;;5099227;28;40105;-76
2023/10/13 14:35:14;;;;;;;12.43;6.32;;;;;;;;;;5096978;28;41993;-77
2023/10/13 14:37:42;;;;;;;22.95;7.22;;;;;;;;;;5096182;28;40894;-72
2023/10/13 14:40:12;;;;;;;18.30;6.25;;;;;;;;;;5096919;28;41623;-75
2023/10/13 14:42:41;;;;;;;16.52;6.53;;;;;;;;;;5101552;27;42470;-70
2023/10/13 14:45:13;;;;;;;14.95;6.45;;;;;;;;;;5100055;28;39983;-75
2023/10/13 14:47:42;;;;;;;11.82;6.60;;;;;;;;;;5096170;28;39929;-76
2023/10/13 14:50:19;;;;;;;14.93;5.85;;;;;;;;;;5101452;28;42398;-74
2023/10/13 14:52:48;;;;;;;11.07;5.93;;;;;;;;;;5091651;27;40423;-76
2023/10/13 14:55:33;;;;;;;18.05;6.35;;;;;;;;;;5097480;28;41532;-76
2023/10/13 14:58:04;;;;;;;13.25;5.55;;;;;;;;;;5111880;27;38431;-71
2023/10/13 15:00:32;;;;;;;12.88;6.00;;;;;;;;;;5093350;28;41264;-74
2023/10/13 15:03:02;;;;;;;22.52;6.07;;;;;;;;;;5097784;27;39988;-69
2023/10/13 15:05:31;;;;;;;18.60;6.20;;;;;;;;;;5105582;28;41276;-68
2023/10/13 15:07:59;;;;;;;16.52;5.85;;;;;;;;;;5094498;27;41882;-73
2023/10/13 15:10:27;;;;;;;14.77;6.30;;;;;;;;;;5098528;28;41839;-73
2023/10/13 15:12:55;;;;;;;16.08;6.43;;;;;;;;;;5097710;27;40458;-72
2023/10/13 15:15:26;;;;;;;11.27;6.57;;;;;;;;;;5103478;28;42880;-77
2023/10/13 15:17:55;;;;;;;18.95;6.65;;;;;;;;;;5101978;27;42011;-75
2023/10/13 15:20:25;;;;;;;15.05;6.30;;;;;;;;;;5097017;28;41619;-74
2023/10/13 15:22:59;;;;;;;15.63;6.93;;;;;;;;;;5094436;28;42713;-72
2023/10/13 15:25:38;;;;;;;11.65;5.53;;;;;;;;;;5093886;28;39877;-74
2023/10/13 15:28:09;;;;;;;12.60;6.47;;;;;;;;;;5092416;28;40650;-74
2023/10/13 15:30:48;;;;;;;13.30;6.15;;;;;;;;;;5092101;28;42509;-75
2023/10/13 15:33:19;;;;;;;17.98;6.53;;;;;;;;;;5095688;28;41080;-73
2023/10/13 15:35:49;;;;;;;16.90;6.13;;;;;;;;;;5089991;28;41686;-73
2023/10/13 15:38:17;;;;;;;16.10;6.40;;;;;;;;;;5092587;28;41180;-73
2023/10/13 15:40:45;;;;;;;11.90;6.28;;;;;;;;;;5097536;27;40075;-72
2023/10/13 15:43:13;;;;;;;13.25;6.75;;;;;;;;;;5095498;28;41815;-71
2023/10/13 15:45:42;;;;;;;14.18;6.22;;;;;;;;;;5095517;28;40313;-70
2023/10/13 15:48:11;;;;;;;10.93;5.80;;;;;;;;;;5095133;27;41955;-70
2023/10/13 15:50:42;;;;;;;12.82;5.95;;;;;;;;;;5092970;28;42269;-71
2023/10/13 15:53:13;;;;;;;12.25;5.78;;;;;;;;;;5098102;27;40917;-70
2023/10/13 15:55:45;;;;;;;17.80;7.00;;;;;;;;;;5092442;28;41468;-70
2023/10/13 15:58:13;;;;;;;13.05;6.05;;;;;;;;;;5098636;28;41393;-70
2023/10/13 16:00:41;;;;;;;12.93;5.95;;;;;;;;;;5097198;28;39150;-70
2023/10/13 16:03:11;;;;;;;14.00;6.43;;;;;;;;;;5095284;27;42031;-69
2023/10/13 16:05:42;;;;;;;11.70;5.13;;;;;;;;;;5095471;27;40627;-70
2023/10/13 16:08:12;;;;;;;13.77;6.05;;;;;;;;;;5099062;27;42918;-69
2023/10/13 16:10:41;;;;;;;13.63;8.15;;;;;;;;;;5095768;28;42869;-70
2023/10/13 16:13:15;;;;;;;62.58;43.33;;;;;;;;;;5100403;28;39863;-70
2023/10/13 16:15:47;;;;;;;99.25;75.90;;;;;;;;;;5093517;27;41741;-71
2023/10/13 16:18:20;;;;;;;94.78;70.72;;;;;;;;;;5094446;27;42279;-71
2023/10/13 16:20:50;;;;;;;94.75;69.20;;;;;;;;;;5090845;28;41409;-71
2023/10/13 16:23:20;;;;;;;91.43;63.83;;;;;;;;;;5097663;27;42132;-72
2023/10/13 16:25:49;;;;;;;87.15;61.30;;;;;;;;;;5094950;28;40331;-73
2023/10/13 16:28:17;;;;;;;64.75;46.05;;;;;;;;;;5093611;28;41739;-73
2023/10/13 16:30:45;;;;;;;68.13;51.03;;;;;;;;;;5097232;28;43105;-73
2023/10/13 16:33:13;;;;;;;55.40;37.90;;;;;;;;;;5092435;28;38948;-72
2023/10/13 16:35:45;;;;;;;81.10;57.72;;;;;;;;;;5092509;27;42014;-73
2023/10/13 16:38:14;;;;;;;83.88;53.65;;;;;;;;;;5091112;28;40670;-72
2023/10/13 16:40:43;;;;;;;72.65;53.33;;;;;;;;;;5099911;27;40621;-74
2023/10/13 16:43:12;;;;;;;66.85;47.08;;;;;;;;;;5097035;28;42181;-73
2023/10/13 16:45:43;;;;;;;67.13;46.25;;;;;;;;;;5097586;28;42101;-73
2023/10/13 16:48:13;;;;;;;58.60;43.70;;;;;;;;;;5095868;28;41822;-72
2023/10/13 16:50:41;;;;;;;43.92;30.45;;;;;;;;;;5100813;28;41600;-71
2023/10/13 16:53:09;;;;;;;43.25;31.02;;;;;;;;;;5095298;27;40902;-71
2023/10/13 16:55:41;;;;;;;43.00;31.25;;;;;;;;;;5100624;28;42141;-70
2023/10/13 16:58:11;;;;;;;47.28;30.77;;;;;;;;;;5095050;28;43124;-70
2023/10/13 17:00:42;;;;;;;40.40;30.00;;;;;;;;;;5092905;28;41620;-71
2023/10/13 17:03:11;;;;;;;41.78;26.98;;;;;;;;;;5093758;28;41600;-71
2023/10/13 17:05:40;;;;;;;42.78;29.00;;;;;;;;;;5091222;27;40851;-70
2023/10/13 17:08:08;;;;;;;46.80;28.38;;;;;;;;;;5101123;27;40117;-71
2023/10/13 17:10:36;;;;;;;46.55;26.25;;;;;;;;;;5095494;27;43143;-71
2023/10/13 17:13:05;;;;;;;42.72;22.80;;;;;;;;;;5096166;28;39924;-71